createdAt,value
2024-02-06T00:00:17.625Z,7.30
2024-02-06T00:02:48.315Z,7.38
2024-02-06T00:05:19.297Z,7.45
2024-02-06T00:07:50.070Z,8.05
2024-02-06T00:10:22.633Z,9.40
2024-02-06T00:12:54.423Z,10.30
2024-02-06T00:15:24.925Z,10.93
2024-02-06T00:17:55.573Z,11.30
2024-02-06T00:20:26.415Z,11.50
2024-02-06T00:22:57.083Z,13.05
2024-02-06T00:25:27.855Z,15.80
2024-02-06T00:27:58.532Z,16.70
2024-02-06T00:30:29.112Z,16.23
2024-02-06T00:32:59.938Z,14.15
2024-02-06T00:35:32.158Z,14.93
2024-02-06T00:38:02.990Z,16.63
2024-02-06T00:40:33.714Z,14.63
2024-02-06T00:43:04.932Z,15.98
2024-02-06T00:45:35.800Z,15.57
2024-02-06T00:48:06.864Z,15.23
2024-02-06T00:50:39.245Z,14.73
2024-02-06T00:53:10.189Z,15.57
2024-02-06T00:55:41.265Z,15.45
2024-02-06T00:58:11.960Z,15.57
2024-02-06T01:00:43.771Z,16.53
2024-02-06T01:03:14.575Z,23.92
2024-02-06T01:05:45.226Z,29.05
2024-02-06T01:08:16.288Z,34.70
2024-02-06T01:10:47.097Z,36.60
2024-02-06T01:13:18.063Z,38.33
2024-02-06T01:15:49.185Z,36.45
2024-02-06T01:18:19.915Z,35.65
2024-02-06T01:20:50.581Z,33.95
2024-02-06T01:23:20.999Z,33.53
2024-02-06T01:25:51.917Z,30.75
2024-02-06T01:28:22.622Z,30.33
2024-02-06T01:30:53.339Z,27.02
2024-02-06T01:33:24.208Z,27.67
2024-02-06T01:35:55.266Z,27.08
2024-02-06T01:38:26.239Z,24.73
2024-02-06T01:40:57.124Z,24.85
2024-02-06T01:43:27.868Z,23.30
2024-02-06T01:45:58.730Z,23.27
2024-02-06T01:48:30.304Z,21.23
2024-02-06T01:51:01.310Z,21.02
2024-02-06T01:53:33.560Z,19.25
2024-02-06T01:56:05.388Z,19.30
2024-02-06T01:58:37.129Z,18.60
2024-02-06T02:01:09.631Z,18.27
2024-02-06T02:03:40.392Z,18.45
2024-02-06T02:06:11.239Z,18.67
2024-02-06T02:08:42.495Z,17.23
2024-02-06T02:11:13.361Z,17.63
2024-02-06T02:13:44.466Z,16.63
2024-02-06T02:16:18.073Z,16.10
2024-02-06T02:18:48.839Z,15.90
2024-02-06T02:21:19.486Z,15.80
2024-02-06T02:23:51.408Z,15.52
2024-02-06T02:26:23.506Z,14.85
2024-02-06T02:28:55.734Z,14.18
2024-02-06T02:31:27.899Z,14.80
2024-02-06T02:33:58.578Z,13.80
2024-02-06T02:36:29.339Z,14.10
2024-02-06T02:39:00.070Z,13.80
2024-02-06T02:41:31.057Z,14.00
2024-02-06T02:44:01.738Z,14.38
2024-02-06T02:46:32.459Z,14.05
2024-02-06T02:49:03.344Z,14.45
2024-02-06T02:51:35.195Z,14.15
2024-02-06T02:54:05.844Z,13.52
2024-02-06T02:56:36.363Z,12.65
2024-02-06T02:59:07.463Z,13.13
2024-02-06T03:01:38.699Z,13.77
2024-02-06T03:04:09.537Z,14.20
2024-02-06T03:06:40.462Z,14.10
2024-02-06T03:09:11.136Z,15.75
2024-02-06T03:11:42.087Z,15.23
2024-02-06T03:14:13.454Z,15.35
2024-02-06T03:16:44.264Z,16.33
2024-02-06T03:19:15.148Z,16.90
2024-02-06T03:21:46.172Z,16.88
2024-02-06T03:24:17.040Z,16.30
2024-02-06T03:26:48.072Z,15.13
2024-02-06T03:29:19.256Z,16.25
2024-02-06T03:31:50.954Z,15.02
2024-02-06T03:34:23.398Z,14.50
2024-02-06T03:36:55.692Z,14.82
2024-02-06T03:39:27.262Z,14.05
2024-02-06T03:41:58.215Z,13.88
2024-02-06T03:44:29.498Z,13.97
2024-02-06T03:47:00.331Z,14.05
2024-02-06T03:49:31.046Z,14.50
2024-02-06T03:52:01.937Z,16.23
2024-02-06T03:54:32.871Z,18.58
2024-02-06T03:57:03.702Z,19.20
2024-02-06T03:59:34.144Z,21.30
2024-02-06T04:02:06.242Z,24.33
2024-02-06T04:04:37.133Z,24.20
2024-02-06T04:07:08.424Z,23.48
2024-02-06T04:09:39.154Z,23.10
2024-02-06T04:12:10.094Z,20.63
2024-02-06T04:14:42.750Z,19.55
2024-02-06T04:17:13.763Z,17.73
2024-02-06T04:19:44.729Z,16.27
2024-02-06T04:22:15.476Z,14.88
2024-02-06T04:24:46.055Z,14.30
2024-02-06T04:27:16.819Z,12.63
2024-02-06T04:29:47.318Z,12.77
2024-02-06T04:32:18.341Z,12.88
2024-02-06T04:34:49.330Z,12.65
2024-02-06T04:37:21.644Z,12.83
2024-02-06T04:39:52.398Z,12.95
2024-02-06T04:42:22.931Z,14.02
2024-02-06T04:44:53.626Z,13.35
2024-02-06T04:47:24.335Z,13.95
2024-02-06T04:49:55.084Z,13.10
2024-02-06T04:52:26.269Z,13.13
2024-02-06T04:54:57.026Z,12.75
2024-02-06T04:57:27.992Z,12.95
2024-02-06T05:00:00.316Z,13.32
2024-02-06T05:02:32.497Z,12.90
2024-02-06T05:05:03.306Z,12.75
2024-02-06T05:07:34.932Z,12.05
2024-02-06T05:10:05.973Z,16.27
2024-02-06T05:12:37.032Z,16.60
2024-02-06T05:15:08.125Z,14.15
2024-02-06T05:17:39.226Z,14.60
2024-02-06T05:20:12.078Z,13.90
2024-02-06T05:22:43.123Z,13.85
2024-02-06T05:25:14.397Z,13.15
2024-02-06T05:27:45.272Z,13.07
2024-02-06T05:30:16.502Z,13.23
2024-02-06T05:32:47.240Z,11.87
2024-02-06T05:35:18.055Z,12.15
2024-02-06T05:37:49.342Z,11.32
2024-02-06T05:40:20.241Z,11.27
2024-02-06T05:42:51.143Z,10.70
2024-02-06T05:45:21.884Z,10.88
2024-02-06T05:47:53.332Z,10.48
2024-02-06T05:50:25.400Z,10.43
2024-02-06T05:52:56.805Z,10.63
2024-02-06T05:55:31.241Z,10.23
2024-02-06T05:58:02.141Z,10.32
2024-02-06T06:00:33.850Z,10.48
2024-02-06T06:03:05.253Z,10.90
2024-02-06T06:05:36.268Z,10.50
2024-02-06T06:08:07.549Z,10.75
2024-02-06T06:10:38.422Z,10.23
2024-02-06T06:13:09.438Z,9.80
2024-02-06T06:15:41.674Z,11.43
2024-02-06T06:18:13.743Z,10.07
2024-02-06T06:20:44.825Z,10.38
2024-02-06T06:23:16.088Z,10.60
2024-02-06T06:25:47.067Z,10.10
2024-02-06T06:28:17.842Z,10.95
2024-02-06T06:30:48.807Z,10.23
2024-02-06T06:33:20.840Z,10.13
2024-02-06T06:35:51.741Z,9.30
2024-02-06T06:38:22.390Z,9.95
2024-02-06T06:40:53.107Z,10.30
2024-02-06T06:43:24.965Z,9.45
2024-02-06T06:45:56.773Z,9.68
2024-02-06T06:48:27.483Z,10.23
2024-02-06T06:50:58.297Z,9.90
2024-02-06T06:53:29.244Z,9.63
2024-02-06T06:55:59.972Z,9.32
2024-02-06T06:58:31.345Z,10.02
2024-02-06T07:01:02.811Z,8.98
2024-02-06T07:03:34.623Z,9.98
2024-02-06T07:06:06.508Z,9.23
2024-02-06T07:08:37.898Z,9.95
2024-02-06T07:11:09.272Z,9.70
2024-02-06T07:13:42.070Z,9.85
2024-02-06T07:16:12.837Z,9.95
2024-02-06T07:18:43.376Z,10.10
2024-02-06T07:21:14.177Z,11.25
2024-02-06T07:23:44.986Z,11.15
2024-02-06T07:26:15.589Z,9.63
2024-02-06T07:28:46.237Z,10.35
2024-02-06T07:31:17.205Z,10.82
2024-02-06T07:33:48.104Z,10.82
2024-02-06T07:36:19.030Z,10.48
2024-02-06T07:38:49.621Z,11.63
2024-02-06T07:41:20.093Z,10.43
2024-02-06T07:43:51.183Z,10.40
2024-02-06T07:46:22.023Z,11.80
2024-02-06T07:48:56.570Z,10.27
2024-02-06T07:51:27.960Z,11.57
2024-02-06T07:54:01.696Z,11.10
2024-02-06T07:56:33.883Z,10.55
2024-02-06T07:59:04.673Z,11.13
2024-02-06T08:01:36.105Z,11.00
2024-02-06T08:06:40.285Z,11.30
2024-02-06T08:09:11.159Z,11.50
2024-02-06T08:11:41.889Z,10.57
2024-02-06T08:14:16.705Z,11.13
2024-02-06T08:16:49.335Z,10.57
2024-02-06T08:19:20.484Z,9.93
2024-02-06T08:21:51.662Z,10.77
2024-02-06T08:24:22.398Z,10.95
2024-02-06T08:26:52.840Z,10.90
2024-02-06T08:29:23.758Z,11.00
2024-02-06T08:31:54.287Z,11.10
2024-02-06T08:34:25.037Z,10.15
2024-02-06T08:36:55.787Z,9.93
2024-02-06T08:39:29.383Z,9.65
2024-02-06T08:42:00.218Z,9.52
2024-02-06T08:44:32.763Z,8.82
2024-02-06T08:47:04.026Z,8.35
2024-02-06T08:49:35.703Z,8.57
2024-02-06T08:52:06.449Z,8.88
2024-02-06T08:54:37.233Z,8.48
2024-02-06T08:57:08.157Z,8.48
2024-02-06T08:59:39.030Z,8.32
2024-02-06T09:02:10.815Z,7.70
2024-02-06T09:04:42.270Z,8.93
2024-02-06T09:07:13.230Z,7.63
2024-02-06T09:09:43.935Z,7.50
2024-02-06T09:12:15.117Z,8.18
2024-02-06T09:14:45.874Z,7.70
2024-02-06T09:17:16.696Z,6.90
2024-02-06T09:19:47.502Z,7.80
2024-02-06T09:22:18.428Z,7.50
2024-02-06T09:24:49.359Z,6.80
2024-02-06T09:27:23.119Z,6.10
2024-02-06T09:29:54.103Z,6.67
2024-02-06T09:32:24.762Z,5.70
2024-02-06T09:34:58.227Z,6.07
2024-02-06T09:37:32.282Z,5.32
2024-02-06T09:42:33.876Z,4.90
2024-02-06T09:45:04.782Z,5.00
2024-02-06T09:47:35.400Z,4.43
2024-02-06T09:50:06.708Z,5.00
2024-02-06T09:52:38.963Z,4.75
2024-02-06T09:55:16.704Z,5.43
2024-02-06T09:57:50.467Z,6.50
2024-02-06T10:00:25.145Z,7.47
2024-02-06T10:03:01.561Z,7.88
2024-02-06T10:05:36.500Z,7.43
2024-02-06T10:08:08.072Z,7.03
2024-02-06T10:10:39.129Z,6.63
2024-02-06T10:13:10.173Z,6.95
2024-02-06T10:15:41.120Z,6.87
2024-02-06T10:18:11.725Z,6.40
2024-02-06T10:20:50.106Z,6.00
2024-02-06T10:23:22.056Z,6.47
2024-02-06T10:25:53.010Z,6.30
2024-02-06T10:28:26.906Z,5.27
2024-02-06T10:30:59.162Z,6.20
2024-02-06T10:33:31.416Z,5.35
2024-02-06T10:36:05.896Z,5.40
2024-02-06T10:38:36.527Z,5.32
2024-02-06T10:41:20.224Z,6.07
2024-02-06T10:43:55.898Z,6.20
2024-02-06T10:46:26.744Z,5.30
2024-02-06T10:49:06.816Z,5.10
2024-02-06T10:51:37.808Z,5.55
2024-02-06T10:54:08.582Z,5.17
2024-02-06T10:56:41.837Z,5.18
2024-02-06T10:59:18.316Z,4.53
2024-02-06T11:01:49.865Z,5.00
2024-02-06T11:07:07.859Z,5.18
2024-02-06T11:09:42.728Z,5.03
2024-02-06T11:12:26.688Z,5.35
2024-02-06T11:15:10.746Z,5.68
2024-02-06T11:17:43.786Z,6.18
2024-02-06T11:20:16.917Z,5.20
2024-02-06T11:22:54.233Z,4.95
2024-02-06T11:25:30.000Z,4.72
2024-02-06T11:28:05.574Z,4.78
2024-02-06T11:30:37.224Z,5.50
2024-02-06T11:33:11.713Z,5.15
2024-02-06T11:35:45.845Z,5.13
2024-02-06T11:38:29.318Z,5.07
2024-02-06T11:41:19.648Z,5.47
2024-02-06T11:43:53.432Z,5.18
2024-02-06T11:46:25.453Z,5.53
2024-02-06T11:49:07.063Z,5.40
2024-02-06T11:51:38.946Z,5.47
2024-02-06T11:54:14.297Z,5.82
2024-02-06T11:56:45.086Z,5.70
2024-02-06T11:59:16.895Z,5.07
2024-02-06T12:01:47.695Z,5.53
2024-02-06T12:04:26.010Z,4.95
2024-02-06T12:07:09.604Z,6.03
2024-02-06T12:09:44.285Z,5.35
2024-02-06T12:12:17.476Z,7.05
2024-02-06T12:14:48.638Z,8.15
2024-02-06T12:17:19.550Z,8.10
2024-02-06T12:19:52.174Z,8.45
2024-02-06T12:22:23.533Z,8.30
2024-02-06T12:25:02.374Z,8.23
2024-02-06T12:27:33.677Z,8.13
2024-02-06T12:30:04.593Z,9.30
2024-02-06T12:32:35.747Z,9.25
2024-02-06T12:35:07.894Z,8.88
2024-02-06T12:37:38.740Z,9.32
2024-02-06T12:40:10.015Z,8.88
2024-02-06T12:42:40.712Z,9.90
2024-02-06T12:45:11.925Z,9.40
2024-02-06T12:47:43.770Z,9.45
2024-02-06T12:52:45.675Z,9.55
2024-02-06T12:55:16.761Z,9.13
2024-02-06T12:57:55.473Z,9.00
2024-02-06T13:00:27.212Z,9.30
2024-02-06T13:03:09.715Z,8.60
2024-02-06T13:05:40.542Z,9.88
2024-02-06T13:08:15.165Z,8.63
2024-02-06T13:10:46.847Z,8.75
2024-02-06T13:13:22.474Z,8.57
2024-02-06T13:15:53.682Z,8.48
2024-02-06T13:18:24.531Z,8.68
2024-02-06T13:21:05.955Z,7.72
2024-02-06T13:23:38.706Z,7.82
2024-02-06T13:26:09.624Z,8.60
2024-02-06T13:28:40.378Z,9.25
2024-02-06T13:31:16.490Z,7.60
2024-02-06T13:33:49.409Z,8.07
2024-02-06T13:36:20.591Z,7.63
2024-02-06T13:38:52.026Z,7.47
2024-02-06T13:41:22.878Z,8.00
2024-02-06T13:43:55.901Z,8.20
2024-02-06T13:46:26.762Z,7.53
2024-02-06T13:48:57.440Z,7.50
2024-02-06T13:51:28.376Z,7.70
2024-02-06T13:53:59.046Z,6.30
2024-02-06T13:56:29.741Z,6.90
2024-02-06T13:59:00.230Z,7.07
2024-02-06T14:01:31.325Z,6.75
2024-02-06T14:04:06.702Z,6.50
2024-02-06T14:06:37.648Z,6.63
2024-02-06T14:09:10.145Z,6.68
2024-02-06T14:11:43.524Z,6.57
2024-02-06T14:14:14.450Z,6.13
2024-02-06T14:16:45.240Z,7.15
2024-02-06T14:19:16.102Z,5.63
2024-02-06T14:21:48.679Z,5.93
2024-02-06T14:24:19.323Z,5.90
2024-02-06T14:26:49.883Z,6.07
2024-02-06T14:29:20.531Z,6.35
2024-02-06T14:31:51.404Z,6.07
2024-02-06T14:34:22.295Z,6.20
2024-02-06T14:36:53.779Z,6.15
2024-02-06T14:39:24.485Z,6.10
2024-02-06T14:41:55.516Z,5.93
2024-02-06T14:44:36.765Z,6.18
2024-02-06T14:47:15.563Z,6.20
2024-02-06T14:49:46.322Z,6.07
2024-02-06T14:52:17.434Z,5.93
2024-02-06T14:54:48.253Z,6.30
2024-02-06T14:57:19.213Z,5.88
2024-02-06T14:59:50.306Z,6.13
2024-02-06T15:02:21.116Z,6.90
2024-02-06T15:04:52.304Z,6.72
2024-02-06T15:07:23.875Z,6.43
2024-02-06T15:09:57.600Z,8.18
2024-02-06T15:12:28.980Z,6.55
2024-02-06T15:15:00.130Z,6.93
2024-02-06T15:17:31.346Z,7.40
2024-02-06T15:20:02.343Z,7.10
2024-02-06T15:22:33.305Z,6.07
2024-02-06T15:25:04.254Z,6.55
2024-02-06T15:27:35.173Z,6.90
2024-02-06T15:30:06.207Z,6.35
2024-02-06T15:32:37.085Z,6.28
2024-02-06T15:35:08.369Z,5.50
2024-02-06T15:37:39.351Z,7.00
2024-02-06T15:40:11.120Z,6.60
2024-02-06T15:42:42.063Z,6.32
2024-02-06T15:45:12.896Z,6.10
2024-02-06T15:47:44.844Z,6.95
2024-02-06T15:50:17.173Z,5.15
2024-02-06T15:52:48.587Z,6.07
2024-02-06T15:55:25.335Z,5.75
2024-02-06T15:57:56.269Z,5.55
2024-02-06T16:00:26.874Z,5.60
2024-02-06T16:02:59.635Z,5.22
2024-02-06T16:05:30.557Z,6.13
2024-02-06T16:08:01.522Z,6.00
2024-02-06T16:10:32.894Z,5.40
2024-02-06T16:13:04.428Z,6.00
2024-02-06T16:15:35.207Z,5.95
2024-02-06T16:18:06.372Z,6.25
2024-02-06T16:20:37.101Z,5.60
2024-02-06T16:23:09.264Z,5.97
2024-02-06T16:25:40.140Z,6.07
2024-02-06T16:28:10.876Z,5.85
2024-02-06T16:30:41.616Z,5.32
2024-02-06T16:33:12.415Z,5.88
2024-02-06T16:35:43.334Z,6.15
2024-02-06T16:38:14.324Z,6.10
2024-02-06T16:40:45.257Z,6.72
2024-02-06T16:43:15.953Z,5.80
2024-02-06T16:45:47.944Z,6.15
2024-02-06T16:48:19.710Z,6.15
2024-02-06T16:50:50.641Z,6.07
2024-02-06T16:53:21.171Z,5.90
2024-02-06T16:55:51.742Z,6.47
2024-02-06T16:58:22.703Z,6.47
2024-02-06T17:00:53.058Z,6.13
2024-02-06T17:03:23.850Z,6.35
2024-02-06T17:05:54.454Z,6.45
2024-02-06T17:08:25.242Z,7.15
2024-02-06T17:10:56.078Z,6.72
2024-02-06T17:13:27.551Z,6.77
2024-02-06T17:15:58.244Z,6.95
2024-02-06T17:18:31.510Z,7.03
2024-02-06T17:21:02.429Z,8.15
2024-02-06T17:23:33.423Z,7.32
2024-02-06T17:26:04.801Z,7.50
2024-02-06T17:28:35.704Z,7.77
2024-02-06T17:31:06.151Z,7.32
2024-02-06T17:33:36.960Z,7.72
2024-02-06T17:36:08.055Z,8.15
2024-02-06T17:38:40.336Z,7.68
2024-02-06T17:41:13.604Z,8.07
2024-02-06T17:43:44.551Z,7.68
2024-02-06T17:46:15.372Z,8.02
2024-02-06T17:48:46.167Z,7.28
2024-02-06T17:51:16.824Z,7.40
2024-02-06T17:53:47.503Z,7.60
2024-02-06T17:56:18.572Z,7.00
2024-02-06T17:58:49.626Z,7.80
2024-02-06T18:01:20.373Z,7.35
2024-02-06T18:03:51.174Z,7.82
2024-02-06T18:06:21.887Z,7.47
2024-02-06T18:08:53.222Z,7.90
2024-02-06T18:11:23.735Z,8.10
2024-02-06T18:13:54.736Z,8.57
2024-02-06T18:16:25.573Z,7.93
2024-02-06T18:18:56.070Z,8.43
2024-02-06T18:21:35.697Z,8.05
2024-02-06T18:24:06.677Z,7.63
2024-02-06T18:26:40.177Z,8.60
2024-02-06T18:29:11.217Z,8.43
2024-02-06T18:31:41.979Z,9.15
2024-02-06T18:34:12.936Z,9.02
2024-02-06T18:36:43.721Z,8.23
2024-02-06T18:39:14.401Z,8.70
2024-02-06T18:41:45.303Z,8.43
2024-02-06T18:44:16.448Z,9.95
2024-02-06T18:46:47.465Z,8.25
2024-02-06T18:49:18.921Z,9.02
2024-02-06T18:51:49.853Z,8.93
2024-02-06T18:54:20.786Z,8.65
2024-02-06T18:56:51.413Z,8.15
2024-02-06T18:59:22.439Z,8.90
2024-02-06T19:01:53.273Z,9.10
2024-02-06T19:04:24.315Z,9.13
2024-02-06T19:06:59.464Z,9.25
2024-02-06T19:09:30.230Z,9.32
2024-02-06T19:12:01.281Z,9.35
2024-02-06T19:14:34.498Z,9.55
2024-02-06T19:19:35.198Z,8.95
2024-02-06T19:22:06.150Z,9.27
2024-02-06T19:24:36.833Z,9.80
2024-02-06T19:27:08.122Z,8.90
2024-02-06T19:29:38.875Z,8.90
2024-02-06T19:32:09.806Z,8.80
2024-02-06T19:34:40.526Z,9.57
2024-02-06T19:37:11.770Z,9.07
2024-02-06T19:39:42.528Z,8.90
2024-02-06T19:42:13.152Z,9.00
2024-02-06T19:44:44.039Z,9.60
2024-02-06T19:47:14.805Z,9.60
2024-02-06T19:49:45.662Z,9.73
2024-02-06T19:52:18.164Z,9.68
2024-02-06T19:54:48.931Z,9.55
2024-02-06T19:57:19.870Z,9.65
2024-02-06T19:59:51.359Z,9.40
2024-02-06T20:02:22.490Z,9.25
2024-02-06T20:04:53.397Z,9.73
2024-02-06T20:07:24.127Z,9.10
2024-02-06T20:09:55.017Z,9.30
2024-02-06T20:12:25.655Z,9.77
2024-02-06T20:14:57.788Z,9.10
2024-02-06T20:17:28.455Z,9.50
2024-02-06T20:19:59.221Z,8.50
2024-02-06T20:22:32.525Z,9.80
2024-02-06T20:25:04.736Z,9.30
2024-02-06T20:27:35.925Z,9.40
2024-02-06T20:30:08.097Z,9.13
2024-02-06T20:32:39.061Z,9.20
2024-02-06T20:35:10.758Z,8.45
2024-02-06T20:37:41.759Z,8.73
2024-02-06T20:40:12.779Z,10.05
2024-02-06T20:42:43.441Z,9.57
2024-02-06T20:45:13.903Z,9.35
2024-02-06T20:47:44.572Z,9.25
2024-02-06T20:50:15.880Z,9.45
2024-02-06T20:52:47.317Z,8.85
2024-02-06T20:55:18.386Z,8.90
2024-02-06T20:57:49.122Z,9.82
2024-02-06T21:00:19.934Z,10.18
2024-02-06T21:02:50.703Z,9.70
2024-02-06T21:05:21.357Z,9.82
2024-02-06T21:07:52.147Z,9.50
2024-02-06T21:10:23.359Z,9.75
2024-02-06T21:12:54.530Z,9.70
2024-02-06T21:15:25.660Z,9.27
2024-02-06T21:17:56.479Z,8.48
2024-02-06T21:20:26.942Z,10.00
2024-02-06T21:22:57.793Z,9.73
2024-02-06T21:25:28.469Z,9.35
2024-02-06T21:27:59.283Z,9.38
2024-02-06T21:30:29.965Z,9.75
2024-02-06T21:33:00.673Z,9.75
2024-02-06T21:35:31.138Z,9.85
2024-02-06T21:38:02.206Z,9.15
2024-02-06T21:40:33.521Z,10.05
2024-02-06T21:43:04.402Z,9.20
2024-02-06T21:45:35.299Z,10.13
2024-02-06T21:48:06.911Z,10.80
2024-02-06T21:50:37.885Z,10.10
2024-02-06T21:53:08.912Z,9.73
2024-02-06T21:55:39.976Z,10.05
2024-02-06T21:58:11.610Z,9.82
2024-02-06T22:00:42.513Z,10.00
2024-02-06T22:03:12.936Z,10.15
2024-02-06T22:05:44.438Z,10.13
2024-02-06T22:08:15.240Z,9.60
2024-02-06T22:10:57.363Z,9.85
2024-02-06T22:13:28.234Z,10.60
2024-02-06T22:15:59.717Z,9.93
2024-02-06T22:18:30.553Z,9.85
2024-02-06T22:21:01.256Z,10.30
2024-02-06T22:23:32.025Z,10.20
2024-02-06T22:26:02.688Z,10.88
2024-02-06T22:28:33.212Z,10.00
2024-02-06T22:31:04.091Z,10.90
2024-02-06T22:33:34.917Z,10.43
2024-02-06T22:36:06.127Z,10.38
2024-02-06T22:38:37.909Z,10.20
2024-02-06T22:41:09.496Z,10.68
2024-02-06T22:43:40.346Z,10.45
2024-02-06T22:46:11.170Z,10.80
2024-02-06T22:48:41.857Z,10.18
2024-02-06T22:51:12.772Z,10.25
2024-02-06T22:53:43.294Z,10.60
2024-02-06T22:56:14.097Z,10.90
2024-02-06T22:58:44.901Z,11.45
2024-02-06T23:01:15.816Z,11.45
2024-02-06T23:03:46.569Z,12.40
2024-02-06T23:06:17.469Z,12.02
2024-02-06T23:08:48.916Z,12.15
2024-02-06T23:11:19.651Z,13.00
2024-02-06T23:13:50.101Z,12.55
2024-02-06T23:16:21.527Z,12.52
2024-02-06T23:18:52.294Z,12.15
2024-02-06T23:21:23.015Z,11.65
2024-02-06T23:23:53.870Z,12.20
2024-02-06T23:26:24.684Z,12.48
2024-02-06T23:28:56.040Z,12.45
2024-02-06T23:31:27.215Z,12.53
2024-02-06T23:33:57.822Z,13.02
2024-02-06T23:36:28.398Z,12.45
2024-02-06T23:39:10.429Z,12.52
2024-02-06T23:41:46.389Z,13.05
2024-02-06T23:44:17.391Z,12.30
2024-02-06T23:46:48.107Z,11.93
2024-02-06T23:49:19.076Z,12.25
2024-02-06T23:51:49.886Z,11.80
2024-02-06T23:54:20.512Z,11.80
2024-02-06T23:56:51.489Z,12.00
2024-02-06T23:59:22.074Z,11.77
